Time;durP1;ratioP1;P1;durP2;ratioP2;P2;SDS_P1;SDS_P2;PMS_P1;PMS_P2;Temp;Humidity;BMP_temperature;BMP_pressure;BME280_temperature;BME280_humidity;BME280_pressure;Samples;Min_cycle;Max_cycle;Signal;HPM_P1;HPM_P2
2022/10/03 00:02:45;;;;;;;3.80;0.80;;;10.10;99.90;;;;;;5072753;28;20086;-66
2022/10/03 00:05:25;;;;;;;2.00;0.60;;;10.10;99.90;;;;;;5055143;28;20476;-66
2022/10/03 00:08:28;;;;;;;4.10;0.63;;;10.10;99.90;;;;;;5072561;28;20048;-66
2022/10/03 00:11:22;;;;;;;1.20;0.50;;;10.10;99.90;;;;;;5072548;28;20050;-66
2022/10/03 00:14:16;;;;;;;1.38;0.70;;;10.20;99.90;;;;;;5054704;28;20088;-66
2022/10/03 00:17:01;;;;;;;6.72;0.77;;;10.10;99.90;;;;;;5054488;28;20056;-66
2022/10/03 00:19:46;;;;;;;1.55;0.70;;;10.00;99.90;;;;;;5072389;28;20048;-66
2022/10/03 00:22:26;;;;;;;6.00;0.88;;;10.20;99.90;;;;;;5054724;28;20044;-69
2022/10/03 00:25:03;;;;;;;2.42;0.60;;;10.10;99.90;;;;;;5072573;28;20480;-66
2022/10/03 00:27:55;;;;;;;3.42;0.93;;;9.90;99.90;;;;;;5054643;28;20429;-66
2022/10/03 00:30:24;;;;;;;3.15;0.60;;;9.90;99.90;;;;;;5004456;28;20572;-66
2022/10/03 00:33:13;;;;;;;4.40;0.60;;;9.90;99.90;;;;;;5072199;28;20037;-66
2022/10/03 00:35:51;;;;;;;0.88;0.60;;;9.90;99.90;;;;;;5071053;28;20052;-66
2022/10/03 00:38:41;;;;;;;3.20;0.90;;;9.90;99.90;;;;;;5072104;28;20055;-66
2022/10/03 00:41:15;;;;;;;7.78;1.42;;;9.90;99.90;;;;;;5072405;28;20490;-66
2022/10/03 00:43:49;;;;;;;3.47;0.73;;;10.00;99.90;;;;;;5054422;28;20539;-66
2022/10/03 00:46:38;;;;;;;3.67;0.60;;;10.00;99.90;;;;;;5054332;28;20044;-66
2022/10/03 00:49:22;;;;;;;3.60;1.55;;;10.10;99.90;;;;;;5072361;28;20047;-67
2022/10/03 00:52:09;;;;;;;2.33;0.93;;;10.10;99.90;;;;;;5072318;28;20507;-66
2022/10/03 00:55:02;;;;;;;1.80;0.82;;;10.10;99.90;;;;;;5072340;28;20055;-66
2022/10/03 00:57:49;;;;;;;4.78;0.80;;;10.20;99.90;;;;;;5054127;28;20435;-66
2022/10/03 01:00:25;;;;;;;2.20;0.60;;;10.20;99.90;;;;;;5072163;28;20051;-66
2022/10/03 01:02:51;;;;;;;4.13;0.93;;;10.30;99.90;;;;;;5071883;28;20041;-67
2022/10/03 01:05:30;;;;;;;0.85;0.50;;;10.30;99.90;;;;;;5053926;28;20049;-66
2022/10/03 01:08:22;;;;;;;3.92;0.70;;;10.30;99.90;;;;;;5072108;28;20041;-67
2022/10/03 01:11:11;;;;;;;5.35;0.70;;;10.30;99.90;;;;;;5072046;28;20051;-66
2022/10/03 01:13:41;;;;;;;7.63;0.68;;;10.40;99.90;;;;;;5053190;28;20470;-66
2022/10/03 01:16:36;;;;;;;4.13;0.80;;;10.40;99.90;;;;;;5071555;28;20091;-66
2022/10/03 01:19:23;;;;;;;5.82;0.95;;;10.40;99.90;;;;;;5072008;28;20057;-66
2022/10/03 01:22:26;;;;;;;4.93;0.80;;;10.40;99.90;;;;;;5075212;28;20037;-66
2022/10/03 01:25:10;;;;;;;3.63;0.50;;;10.50;99.90;;;;;;5076133;28;20047;-66
2022/10/03 01:30:38;;;;;;;1.58;0.75;;;10.50;99.90;;;;;;5075976;28;20083;-66
2022/10/03 01:33:22;;;;;;;2.05;0.55;;;10.50;99.90;;;;;;5075925;28;20034;-66
2022/10/03 01:36:03;;;;;;;4.75;0.98;;;10.50;99.90;;;;;;5057678;28;20128;-66
2022/10/03 01:39:02;;;;;;;2.70;0.50;;;10.60;99.90;;;;;;5057482;28;20054;-66
2022/10/03 01:42:00;;;;;;;1.10;0.70;;;10.60;99.90;;;;;;5053513;28;20074;-66
2022/10/03 01:44:53;;;;;;;3.88;0.98;;;10.60;99.90;;;;;;5075432;28;20041;-66
2022/10/03 01:47:36;;;;;;;0.73;0.50;;;10.60;99.90;;;;;;5075631;28;20041;-66
2022/10/03 01:50:18;;;;;;;0.70;0.40;;;10.60;99.90;;;;;;5057773;28;20117;-66
2022/10/03 01:52:57;;;;;;;3.67;0.73;;;10.60;99.90;;;;;;5057349;28;20036;-66
2022/10/03 01:55:41;;;;;;;1.92;0.60;;;10.60;99.90;;;;;;5075586;28;20083;-66
2022/10/03 01:58:28;;;;;;;2.42;0.65;;;10.60;99.90;;;;;;5075351;28;20048;-66
2022/10/03 02:01:13;;;;;;;3.50;0.40;;;10.60;99.90;;;;;;5057208;28;20051;-66
2022/10/03 02:04:01;;;;;;;1.58;0.63;;;10.60;99.90;;;;;;5057209;28;20515;-66
2022/10/03 02:06:53;;;;;;;2.03;0.80;;;10.60;99.90;;;;;;5075031;28;20080;-66
2022/10/03 02:09:46;;;;;;;2.00;0.68;;;10.60;99.90;;;;;;5075272;28;20044;-66
2022/10/03 02:12:29;;;;;;;2.83;0.80;;;10.60;99.90;;;;;;5075202;28;20486;-66
2022/10/03 02:15:13;;;;;;;2.58;0.70;;;10.60;99.90;;;;;;5056923;28;20056;-66
2022/10/03 02:17:52;;;;;;;1.45;0.52;;;10.60;99.90;;;;;;5074537;28;20107;-66
2022/10/03 02:20:22;;;;;;;1.88;0.70;;;10.50;99.90;;;;;;5056825;28;20044;-68
2022/10/03 02:22:52;;;;;;;2.28;0.60;;;10.50;99.90;;;;;;5075015;28;20040;-66
2022/10/03 02:25:42;;;;;;;4.60;0.70;;;10.60;99.90;;;;;;5074698;28;20110;-66
2022/10/03 02:28:38;;;;;;;1.85;0.82;;;10.40;99.90;;;;;;5074918;28;20407;-66
2022/10/03 02:31:34;;;;;;;3.60;0.70;;;10.40;99.90;;;;;;5056512;28;20462;-66
2022/10/03 02:34:28;;;;;;;7.53;0.85;;;10.30;99.90;;;;;;5074477;28;20076;-66
2022/10/03 02:37:00;;;;;;;3.05;0.80;;;10.30;99.90;;;;;;5056518;28;20124;-66
2022/10/03 02:39:49;;;;;;;2.42;0.65;;;10.30;99.90;;;;;;5056413;28;20052;-66
2022/10/03 02:42:48;;;;;;;2.80;0.60;;;10.30;99.90;;;;;;5074678;28;20560;-68
2022/10/03 02:45:32;;;;;;;2.50;0.77;;;10.30;99.90;;;;;;5056382;28;20044;-67
2022/10/03 02:48:06;;;;;;;1.20;0.50;;;10.20;99.90;;;;;;5056289;28;20135;-66
2022/10/03 02:51:19;;;;;;;1.80;0.70;;;10.20;99.90;;;;;;5074245;28;20079;-65
2022/10/03 02:53:56;;;;;;;8.77;0.85;;;10.20;99.90;;;;;;5018893;28;20573;-66
2022/10/03 02:56:39;;;;;;;1.85;0.73;;;10.20;99.90;;;;;;5074420;28;20543;-66
2022/10/03 02:59:37;;;;;;;1.02;0.45;;;10.30;99.90;;;;;;5074241;28;20040;-66
2022/10/03 03:02:03;;;;;;;8.45;0.70;;;10.30;99.90;;;;;;5056010;28;20051;-66
2022/10/03 03:04:40;;;;;;;2.10;0.60;;;10.30;99.90;;;;;;5074298;28;20114;-66
2022/10/03 03:07:15;;;;;;;1.95;0.60;;;10.30;99.90;;;;;;5056265;28;20045;-66
2022/10/03 03:10:06;;;;;;;2.90;0.70;;;10.40;99.90;;;;;;5055847;28;20059;-65
2022/10/03 03:12:49;;;;;;;2.22;0.63;;;10.40;99.90;;;;;;5073896;28;20042;-66
2022/10/03 03:15:35;;;;;;;1.48;0.40;;;10.40;99.90;;;;;;5055784;28;20102;-66
2022/10/03 03:18:26;;;;;;;3.20;0.60;;;10.40;99.90;;;;;;5073558;28;20056;-66
2022/10/03 03:20:55;;;;;;;3.72;0.63;;;10.50;99.90;;;;;;5056485;28;20048;-67
2022/10/03 03:23:40;;;;;;;0.93;0.50;;;10.50;99.90;;;;;;5073876;28;20123;-66
2022/10/03 03:26:29;;;;;;;4.45;0.68;;;10.70;99.90;;;;;;5073525;28;20109;-66
2022/10/03 03:29:19;;;;;;;2.95;0.70;;;10.50;99.90;;;;;;5073826;28;20051;-66
2022/10/03 03:32:06;;;;;;;4.68;0.68;;;10.60;99.90;;;;;;5073409;28;20050;-66
2022/10/03 03:34:58;;;;;;;5.57;0.50;;;10.60;99.90;;;;;;5073710;28;20044;-66
2022/10/03 03:37:44;;;;;;;3.30;0.30;;;10.60;99.90;;;;;;5073562;28;20045;-66
2022/10/03 03:40:15;;;;;;;4.93;0.60;;;10.60;99.90;;;;;;5072751;28;20048;-65
2022/10/03 03:43:10;;;;;;;1.00;0.60;;;10.60;99.90;;;;;;5073190;28;20047;-66
2022/10/03 03:45:49;;;;;;;1.17;0.55;;;10.70;99.90;;;;;;5013484;28;20105;-66
2022/10/03 03:48:29;;;;;;;1.30;0.47;;;10.60;99.90;;;;;;5073450;28;20052;-66
2022/10/03 03:51:22;;;;;;;3.85;0.47;;;10.70;99.90;;;;;;5055227;28;20048;-66
2022/10/03 03:54:43;;;;;;;1.63;0.60;;;10.70;99.90;;;;;;5073000;28;20098;-70
2022/10/03 03:57:22;;;;;;;5.32;0.45;;;10.70;99.90;;;;;;4971918;28;20042;-70
2022/10/03 04:00:30;;;;;;;1.02;0.60;;;10.70;99.90;;;;;;4972038;28;20411;-70
2022/10/03 04:03:11;;;;;;;1.92;0.52;;;10.80;99.90;;;;;;5030231;28;20052;-71
2022/10/03 04:05:39;;;;;;;;;;;10.80;99.90;;;;;;5073520;28;20144;-71
2022/10/03 04:08:59;;;;;;;2.20;0.60;;;10.80;99.90;;;;;;5073056;28;20348;-71
2022/10/03 04:11:48;;;;;;;1.30;0.43;;;10.80;99.90;;;;;;4971770;28;20494;-71
2022/10/03 04:14:36;;;;;;;2.28;0.80;;;10.80;99.90;;;;;;5072872;28;20541;-71
2022/10/03 04:20:28;;;;;;;2.65;0.57;;;10.80;99.90;;;;;;5054575;28;20086;-71
2022/10/03 04:23:21;;;;;;;0.65;0.40;;;10.80;99.90;;;;;;5072705;28;20045;-71
2022/10/03 04:26:14;;;;;;;1.80;0.30;;;10.80;99.90;;;;;;5072630;28;20052;-71
2022/10/03 04:29:01;;;;;;;0.73;0.43;;;10.80;99.90;;;;;;5072350;28;20044;-72
2022/10/03 04:31:37;;;;;;;4.60;0.60;;;10.80;99.90;;;;;;5055525;28;20052;-71
2022/10/03 04:34:38;;;;;;;1.35;0.50;;;10.80;99.90;;;;;;5072455;28;20048;-71
2022/10/03 04:37:38;;;;;;;3.20;0.43;;;10.80;99.90;;;;;;5054245;28;20075;-71
2022/10/03 04:40:18;;;;;;;4.32;0.65;;;10.70;99.90;;;;;;5054207;28;20106;-71
2022/10/03 04:42:59;;;;;;;0.98;0.70;;;10.70;99.90;;;;;;5054440;28;20392;-71
2022/10/03 04:45:40;;;;;;;1.52;0.40;;;10.70;99.90;;;;;;5054447;28;20048;-71
2022/10/03 04:48:17;;;;;;;1.33;0.47;;;10.70;99.90;;;;;;5054041;28;20040;-71
2022/10/03 04:51:18;;;;;;;3.63;0.63;;;10.70;99.90;;;;;;5071974;28;20036;-71
2022/10/03 04:54:01;;;;;;;12.10;0.90;;;10.80;99.90;;;;;;5053980;28;20044;-71
2022/10/03 04:56:39;;;;;;;2.15;0.43;;;10.70;99.90;;;;;;5053272;28;20052;-71
2022/10/03 04:59:31;;;;;;;3.03;0.57;;;10.80;99.90;;;;;;5072197;28;20098;-70
2022/10/03 05:02:15;;;;;;;1.17;0.60;;;10.80;99.90;;;;;;5071913;28;20091;-71
2022/10/03 05:05:03;;;;;;;3.33;0.88;;;10.80;99.90;;;;;;5072149;28;20087;-71
2022/10/03 05:07:44;;;;;;;1.25;0.50;;;10.70;99.90;;;;;;5072164;28;20044;-70
2022/10/03 05:10:41;;;;;;;3.15;0.55;;;10.70;99.90;;;;;;5071777;28;20047;-71
2022/10/03 05:13:31;;;;;;;1.05;0.50;;;10.70;99.90;;;;;;5072012;28;20480;-73
2022/10/03 05:16:34;;;;;;;1.08;0.30;;;10.70;99.90;;;;;;5071982;28;20496;-71
2022/10/03 05:19:05;;;;;;;1.35;0.70;;;10.60;99.90;;;;;;5051851;28;20102;-71
2022/10/03 05:21:40;;;;;;;4.03;1.02;;;10.60;99.90;;;;;;5033865;28;20041;-72
2022/10/03 05:24:25;;;;;;;2.13;0.60;;;10.50;99.90;;;;;;5051900;28;20048;-71
2022/10/03 05:27:13;;;;;;;0.45;0.30;;;10.50;99.90;;;;;;5033763;28;20044;-69
2022/10/03 05:29:46;;;;;;;0.73;0.32;;;10.40;99.90;;;;;;5051513;28;20045;-70
2022/10/03 05:32:38;;;;;;;2.83;0.60;;;10.40;99.90;;;;;;5051571;28;20550;-71
2022/10/03 05:35:22;;;;;;;2.10;0.40;;;10.30;99.90;;;;;;5051867;28;20067;-71
2022/10/03 05:38:16;;;;;;;1.85;0.60;;;10.30;99.90;;;;;;5033648;28;20060;-71
2022/10/03 05:41:01;;;;;;;2.30;0.60;;;10.20;99.90;;;;;;5051600;28;20114;-70
2022/10/03 05:43:45;;;;;;;1.17;0.40;;;10.20;99.90;;;;;;5033672;28;20045;-70
2022/10/03 05:46:32;;;;;;;1.92;0.55;;;10.30;99.90;;;;;;5051789;28;20186;-71
2022/10/03 05:49:15;;;;;;;2.42;0.60;;;10.10;99.90;;;;;;5033740;28;20491;-71
2022/10/03 05:52:09;;;;;;;2.13;0.80;;;10.10;99.90;;;;;;5051685;28;20052;-70
2022/10/03 05:54:49;;;;;;;3.13;0.85;;;10.00;99.90;;;;;;5034758;28;20163;-71
2022/10/03 05:57:42;;;;;;;2.63;0.50;;;10.00;99.90;;;;;;5051319;28;20041;-71
2022/10/03 06:00:13;;;;;;;6.38;0.80;;;10.00;99.90;;;;;;5051630;28;20045;-70
2022/10/03 06:03:04;;;;;;;2.83;0.90;;;10.00;99.90;;;;;;5051532;28;20120;-71
2022/10/03 06:05:42;;;;;;;3.08;0.70;;;9.90;99.90;;;;;;5033420;28;20037;-71
2022/10/03 06:08:22;;;;;;;4.53;0.90;;;9.90;99.90;;;;;;5055221;28;20496;-70
2022/10/03 06:11:10;;;;;;;1.13;0.60;;;9.90;99.90;;;;;;5055278;28;20079;-73
2022/10/03 06:14:13;;;;;;;1.38;0.52;;;9.90;99.90;;;;;;5054990;28;20090;-71
2022/10/03 06:16:57;;;;;;;2.22;0.90;;;9.90;99.90;;;;;;5041630;28;20057;-72
2022/10/03 06:19:31;;;;;;;2.60;0.82;;;9.90;99.90;;;;;;5056831;28;20052;-71
2022/10/03 06:22:35;;;;;;;3.35;0.60;;;9.90;99.90;;;;;;5074704;28;20041;-72
2022/10/03 06:25:20;;;;;;;1.25;0.57;;;9.90;99.90;;;;;;5056686;28;20051;-71
2022/10/03 06:27:58;;;;;;;2.72;1.08;;;10.00;99.90;;;;;;5074919;28;20040;-74
2022/10/03 06:30:45;;;;;;;1.02;0.40;;;10.00;99.90;;;;;;5074598;28;20479;-72
2022/10/03 06:33:35;;;;;;;1.38;0.60;;;10.00;99.90;;;;;;5056675;28;20051;-72
2022/10/03 06:36:10;;;;;;;0.65;0.40;;;10.00;99.90;;;;;;5074324;28;20495;-72
2022/10/03 06:39:11;;;;;;;3.20;0.75;;;10.00;99.90;;;;;;5055972;28;20047;-72
2022/10/03 06:41:55;;;;;;;0.85;0.50;;;10.10;99.90;;;;;;5056304;28;20048;-70
2022/10/03 06:44:36;;;;;;;3.30;0.65;;;10.10;99.90;;;;;;5074443;28;20044;-72
2022/10/03 06:47:30;;;;;;;1.30;0.50;;;10.20;99.90;;;;;;5074482;28;21003;-72
2022/10/03 06:50:17;;;;;;;1.70;0.85;;;10.30;99.90;;;;;;5074119;28;20170;-71
2022/10/03 06:52:51;;;;;;;0.70;0.50;;;10.30;99.90;;;;;;5074363;28;20549;-71
2022/10/03 06:55:41;;;;;;;2.03;0.35;;;10.30;99.90;;;;;;5073943;28;20055;-71
2022/10/03 06:58:26;;;;;;;0.37;0.37;;;10.40;99.90;;;;;;5056146;28;20504;-72
2022/10/03 07:01:10;;;;;;;1.02;0.50;;;10.50;99.90;;;;;;5074221;28;20072;-72
2022/10/03 07:03:48;;;;;;;4.65;0.47;;;10.50;99.90;;;;;;5074140;28;20502;-72
2022/10/03 07:06:33;;;;;;;0.38;0.30;;;10.60;99.90;;;;;;5074105;28;20082;-72
2022/10/03 07:09:21;;;;;;;1.13;0.47;;;10.80;99.90;;;;;;5055700;28;20048;-72
2022/10/03 07:11:54;;;;;;;1.13;0.40;;;10.80;99.90;;;;;;5073988;28;20040;-72
2022/10/03 07:14:48;;;;;;;1.42;0.60;;;10.90;99.90;;;;;;5073984;28;20051;-72
2022/10/03 07:17:30;;;;;;;2.95;0.55;;;11.00;99.90;;;;;;5073068;28;20140;-72
2022/10/03 07:20:28;;;;;;;2.15;0.68;;;11.10;99.90;;;;;;5073364;28;20454;-72
2022/10/03 07:23:05;;;;;;;1.88;0.40;;;11.20;99.90;;;;;;5073743;28;20041;-72
2022/10/03 07:25:50;;;;;;;1.20;0.50;;;11.30;99.90;;;;;;5073772;28;20044;-72
2022/10/03 07:28:49;;;;;;;1.52;0.50;;;11.50;99.90;;;;;;5073657;28;20170;-72
2022/10/03 07:31:38;;;;;;;1.83;0.40;;;11.50;99.90;;;;;;5073564;28;20093;-72
2022/10/03 07:34:21;;;;;;;2.08;0.60;;;11.70;99.90;;;;;;5073660;28;20037;-72
2022/10/03 07:40:16;;;;;;;1.70;0.50;;;11.90;99.90;;;;;;5073615;28;20523;-70
2022/10/03 07:43:03;;;;;;;5.03;0.63;;;12.00;99.90;;;;;;5073647;28;20074;-73
2022/10/03 07:45:36;;;;;;;2.88;0.80;;;12.00;99.90;;;;;;5055266;28;20044;-72
2022/10/03 07:48:23;;;;;;;3.38;0.80;;;12.10;99.90;;;;;;5073370;28;20094;-71
2022/10/03 07:51:00;;;;;;;1.85;0.73;;;12.20;99.90;;;;;;5073267;28;20040;-72
2022/10/03 07:53:50;;;;;;;5.05;0.80;;;12.30;99.90;;;;;;5072961;28;20066;-71
2022/10/03 07:56:21;;;;;;;4.45;0.82;;;12.30;99.90;;;;;;5073172;28;20487;-72
2022/10/03 07:59:05;;;;;;;0.40;0.38;;;12.50;99.90;;;;;;5072696;28;20040;-72
2022/10/03 08:01:41;;;;;;;4.05;0.50;;;12.50;99.90;;;;;;5073105;28;20036;-72
2022/10/03 08:04:45;;;;;;;1.10;0.50;;;12.60;99.90;;;;;;5072649;28;20041;-71
2022/10/03 08:07:21;;;;;;;1.92;0.50;;;12.70;99.90;;;;;;4971782;28;20086;-72
2022/10/03 08:09:56;;;;;;;0.38;0.30;;;12.80;99.90;;;;;;4971744;28;20403;-71
2022/10/03 08:12:39;;;;;;;1.83;0.55;;;12.90;99.90;;;;;;5031987;28;20059;-72
2022/10/03 08:15:37;;;;;;;1.98;0.52;;;13.00;99.90;;;;;;5072988;28;20716;-71
2022/10/03 08:18:25;;;;;;;0.77;0.50;;;13.10;99.90;;;;;;5054479;28;20492;-71
2022/10/03 08:20:59;;;;;;;3.65;0.70;;;13.10;99.90;;;;;;5072816;28;20408;-71
2022/10/03 08:23:40;;;;;;;1.58;0.43;;;13.20;99.90;;;;;;5054462;28;20039;-70
2022/10/03 08:26:26;;;;;;;1.95;0.65;;;13.30;99.90;;;;;;5072687;28;20365;-70
2022/10/03 08:29:10;;;;;;;0.57;0.47;;;13.40;99.90;;;;;;5054674;28;20048;-70
2022/10/03 08:32:21;;;;;;;1.75;0.57;;;13.50;99.90;;;;;;5054385;28;20052;-71
2022/10/03 08:35:17;;;;;;;0.30;0.30;;;13.60;99.90;;;;;;5072565;28;20044;-71
2022/10/03 08:38:01;;;;;;;0.85;0.43;;;13.60;99.90;;;;;;5072367;28;20422;-71
2022/10/03 08:40:39;;;;;;;1.92;0.50;;;13.70;99.90;;;;;;5072570;28;20122;-71
2022/10/03 08:43:59;;;;;;;0.52;0.40;;;13.70;99.90;;;;;;5072496;28;20480;-71
2022/10/03 08:46:33;;;;;;;3.28;0.50;;;13.80;99.90;;;;;;4971117;28;20105;-70
2022/10/03 08:49:36;;;;;;;1.65;0.40;;;13.90;99.90;;;;;;5057001;28;20056;-71
2022/10/03 08:52:31;;;;;;;0.40;0.28;;;14.00;99.90;;;;;;5072282;28;20113;-71
2022/10/03 08:55:30;;;;;;;2.08;0.65;;;14.10;99.90;;;;;;4983214;28;20612;-71
2022/10/03 08:58:22;;;;;;;2.75;0.50;;;14.10;99.90;;;;;;5072059;28;20048;-71
2022/10/03 09:01:14;;;;;;;1.20;0.30;;;14.20;99.90;;;;;;5072246;28;20392;-71
2022/10/03 09:03:52;;;;;;;1.67;0.60;;;14.20;99.90;;;;;;5072195;28;20484;-71
2022/10/03 09:06:39;;;;;;;1.65;0.35;;;14.20;99.90;;;;;;5071910;28;20047;-71
2022/10/03 09:09:23;;;;;;;1.23;0.55;;;14.20;99.90;;;;;;5071833;28;20549;-70
2022/10/03 09:12:18;;;;;;;2.03;0.50;;;14.30;99.90;;;;;;5072103;28;20157;-72
2022/10/03 09:14:46;;;;;;;0.57;0.47;;;14.40;99.90;;;;;;5072125;28;20045;-72
2022/10/03 09:17:33;;;;;;;4.68;0.40;;;14.40;99.90;;;;;;5053640;28;20060;-71
2022/10/03 09:20:18;;;;;;;1.35;0.30;;;14.50;99.90;;;;;;5072020;28;20080;-71
2022/10/03 09:23:05;;;;;;;0.55;0.20;;;14.60;99.90;;;;;;5053785;28;20048;-71
2022/10/03 09:26:05;;;;;;;0.88;0.47;;;14.60;99.90;;;;;;5053677;28;20063;-70
2022/10/03 09:28:47;;;;;;;3.63;1.73;;;14.70;99.90;;;;;;5072073;28;20090;-70
2022/10/03 09:31:19;;;;;;;3.67;0.40;;;14.70;99.90;;;;;;5071644;28;20146;-70
2022/10/03 09:34:21;;;;;;;3.35;0.38;;;14.80;99.90;;;;;;5071630;28;20039;-70
2022/10/03 09:37:15;;;;;;;1.45;0.60;;;14.80;99.90;;;;;;5071905;28;20041;-71
2022/10/03 09:40:02;;;;;;;0.47;0.40;;;14.80;99.90;;;;;;5053596;28;20048;-71
2022/10/03 09:42:37;;;;;;;1.02;0.45;;;14.80;99.90;;;;;;5074655;28;20127;-71
2022/10/03 09:45:25;;;;;;;3.83;0.50;;;14.90;99.90;;;;;;5075525;28;20041;-71
2022/10/03 09:48:16;;;;;;;1.73;0.45;;;14.90;99.90;;;;;;5075444;28;20044;-71
2022/10/03 09:50:54;;;;;;;2.60;0.85;;;15.00;99.90;;;;;;5057665;28;20052;-71
2022/10/03 09:53:47;;;;;;;2.80;0.63;;;15.10;99.90;;;;;;5075569;28;20380;-71
2022/10/03 09:56:25;;;;;;;3.60;0.75;;;15.20;99.90;;;;;;5075295;28;20515;-70
2022/10/03 09:59:28;;;;;;;0.30;0.30;;;15.30;99.90;;;;;;5075492;28;20057;-71
2022/10/03 10:02:21;;;;;;;4.00;0.32;;;15.50;99.90;;;;;;5075597;28;20505;-70
2022/10/03 10:05:21;;;;;;;0.93;0.32;;;15.50;99.90;;;;;;5075310;28;20509;-71
2022/10/03 10:08:20;;;;;;;1.05;0.35;;;15.80;99.90;;;;;;5074962;28;20040;-70
2022/10/03 10:11:12;;;;;;;0.60;0.30;;;15.60;99.20;;;;;;5075274;28;20074;-72
2022/10/03 10:13:56;;;;;;;1.70;0.63;;;15.70;98.20;;;;;;5028445;28;20136;-71
2022/10/03 10:16:40;;;;;;;1.88;0.47;;;15.80;99.60;;;;;;5057019;28;20421;-70
2022/10/03 10:19:20;;;;;;;1.02;0.28;;;15.90;98.00;;;;;;5055062;28;20053;-71
2022/10/03 10:22:14;;;;;;;0.82;0.28;;;16.00;99.70;;;;;;5055197;28;20033;-71
2022/10/03 10:25:12;;;;;;;0.10;0.10;;;16.10;97.10;;;;;;5054960;28;20118;-71
2022/10/03 10:27:56;;;;;;;3.53;0.52;;;16.20;97.50;;;;;;5054767;28;20107;-71
2022/10/03 10:30:22;;;;;;;0.22;0.20;;;16.20;97.90;;;;;;5054958;28;20442;-71
2022/10/03 10:33:18;;;;;;;0.85;0.20;;;16.20;96.90;;;;;;5054560;28;20040;-70
2022/10/03 10:36:21;;;;;;;6.50;0.60;;;16.20;98.00;;;;;;5054840;28;20044;-71
2022/10/03 10:39:08;;;;;;;0.45;0.20;;;16.30;96.50;;;;;;5054682;28;20049;-71
2022/10/03 10:41:55;;;;;;;2.35;0.40;;;16.30;93.00;;;;;;5036523;28;20068;-70
2022/10/03 10:44:26;;;;;;;1.10;0.30;;;16.30;95.00;;;;;;5054668;28;20487;-71
2022/10/03 10:47:12;;;;;;;1.48;0.30;;;16.40;96.50;;;;;;5054498;28;20060;-71
2022/10/03 10:49:56;;;;;;;0.22;0.20;;;16.50;97.20;;;;;;5054536;28;20049;-69
2022/10/03 10:52:56;;;;;;;3.85;0.40;;;16.40;93.90;;;;;;5035904;28;20378;-71
2022/10/03 10:55:49;;;;;;;2.10;0.40;;;16.40;96.30;;;;;;5054101;28;20049;-71
2022/10/03 10:58:35;;;;;;;2.88;0.30;;;16.40;95.00;;;;;;5054270;28;20041;-71
2022/10/03 11:01:37;;;;;;;1.00;0.30;;;16.40;96.30;;;;;;5054251;28;20048;-71
2022/10/03 11:05:05;;;;;;;0.52;0.30;;;16.40;95.30;;;;;;5054284;28;20055;-71
2022/10/03 11:08:06;;;;;;;3.78;0.20;;;16.40;93.50;;;;;;5036094;28;20047;-71
2022/10/03 11:10:38;;;;;;;3.13;0.30;;;16.40;95.00;;;;;;5054027;28;20075;-70
2022/10/03 11:13:31;;;;;;;0.47;0.17;;;16.40;94.50;;;;;;5053801;28;20040;-73
2022/10/03 11:16:33;;;;;;;2.67;0.70;;;16.40;93.60;;;;;;5053897;28;20044;-71
2022/10/03 11:19:18;;;;;;;1.20;0.30;;;16.40;93.50;;;;;;5073251;28;20048;-71
2022/10/03 11:22:08;;;;;;;0.52;0.10;;;16.40;93.70;;;;;;5073763;28;20040;-71
2022/10/03 11:24:58;;;;;;;0.63;0.38;;;16.40;93.50;;;;;;5073785;28;20044;-71
2022/10/03 11:28:05;;;;;;;4.05;0.43;;;16.50;91.90;;;;;;5073857;28;20114;-71
2022/10/03 11:30:49;;;;;;;3.60;0.50;;;16.60;92.60;;;;;;5073931;28;20044;-71
2022/10/03 11:33:41;;;;;;;0.80;0.30;;;16.70;93.10;;;;;;5055815;28;20140;-70
2022/10/03 11:36:26;;;;;;;0.80;0.20;;;16.70;91.30;;;;;;5073720;28;20048;-70
2022/10/03 11:39:05;;;;;;;0.98;0.28;;;16.60;86.50;;;;;;5055579;28;20467;-70
2022/10/03 11:41:49;;;;;;;1.95;0.38;;;16.60;91.20;;;;;;5073596;28;20541;-71
2022/10/03 11:44:15;;;;;;;1.83;0.40;;;16.50;89.50;;;;;;5073600;28;20040;-70
2022/10/03 11:47:01;;;;;;;4.38;0.22;;;16.60;91.50;;;;;;5055348;28;20033;-73
2022/10/03 11:49:29;;;;;;;1.45;0.40;;;16.50;91.60;;;;;;5073476;28;20048;-70
2022/10/03 11:52:32;;;;;;;3.00;0.20;;;16.50;91.90;;;;;;5055238;28;20044;-70
2022/10/03 11:55:22;;;;;;;6.35;0.47;;;16.50;89.60;;;;;;5072950;28;20101;-70
2022/10/03 11:58:33;;;;;;;1.35;0.35;;;16.60;91.60;;;;;;5072846;28;20094;-71
2022/10/03 12:01:09;;;;;;;2.58;0.50;;;16.60;90.60;;;;;;5030842;28;20045;-72
2022/10/03 12:03:45;;;;;;;3.03;0.20;;;16.60;90.80;;;;;;5054936;28;20119;-70
2022/10/03 12:09:16;;;;;;;0.60;0.20;;;16.60;91.50;;;;;;5073054;28;20084;-70
2022/10/03 12:12:09;;;;;;;0.90;0.35;;;16.70;92.10;;;;;;5073053;28;20077;-71
2022/10/03 12:14:45;;;;;;;1.30;0.40;;;16.80;92.00;;;;;;5072957;28;20048;-70
2022/10/03 12:17:34;;;;;;;0.82;0.25;;;16.90;92.60;;;;;;5054753;28;20056;-70
2022/10/03 12:20:05;;;;;;;0.63;0.20;;;16.90;91.60;;;;;;5072426;28;20041;-70
2022/10/03 12:22:51;;;;;;;2.58;0.25;;;16.90;84.70;;;;;;5072551;28;20040;-70
2022/10/03 12:25:22;;;;;;;1.42;0.35;;;16.90;89.70;;;;;;5072720;28;20048;-70
2022/10/03 12:28:01;;;;;;;0.50;0.22;;;16.90;87.50;;;;;;5072701;28;20441;-70
2022/10/03 12:30:36;;;;;;;1.10;0.20;;;17.00;87.50;;;;;;5054704;28;20109;-70
2022/10/03 12:33:21;;;;;;;0.98;0.30;;;17.00;90.50;;;;;;5072452;28;20518;-70
2022/10/03 12:36:01;;;;;;;1.20;0.20;;;17.00;90.40;;;;;;5054596;28;20052;-70
2022/10/03 12:38:37;;;;;;;;;;;17.00;86.70;;;;;;5072884;28;20144;-70
2022/10/03 12:41:30;;;;;;;0.80;0.28;;;17.00;89.20;;;;;;5072229;28;19970;-70
2022/10/03 12:44:31;;;;;;;0.70;0.20;;;17.00;87.40;;;;;;5072109;28;20047;-72
2022/10/03 12:47:12;;;;;;;;;;;17.00;88.50;;;;;;5071068;28;20056;-70
2022/10/03 12:50:02;;;;;;;2.45;0.25;;;17.00;87.40;;;;;;5072352;28;19920;-70
2022/10/03 12:52:39;;;;;;;0.70;0.22;;;17.00;89.40;;;;;;5072409;28;20056;-70
2022/10/03 12:55:33;;;;;;;2.20;0.35;;;17.00;84.30;;;;;;5054128;28;20040;-70
2022/10/03 12:58:17;;;;;;;1.42;0.50;;;17.00;84.30;;;;;;5071879;28;20048;-70
2022/10/03 13:01:01;;;;;;;1.13;0.20;;;17.00;90.00;;;;;;5072300;28;20500;-70
2022/10/03 13:03:54;;;;;;;1.60;0.28;;;17.10;89.60;;;;;;5072283;28;20036;-70
2022/10/03 13:06:35;;;;;;;1.52;0.30;;;17.20;89.30;;;;;;5072283;28;20037;-70
2022/10/03 13:09:20;;;;;;;;;;;17.30;84.70;;;;;;5072592;28;20040;-70
2022/10/03 13:11:57;;;;;;;3.15;0.32;;;17.30;82.10;;;;;;5053921;28;19916;-70
2022/10/03 13:14:42;;;;;;;0.35;0.20;;;17.30;88.10;;;;;;5054273;28;20044;-71
2022/10/03 13:17:48;;;;;;;4.68;0.57;;;17.40;86.30;;;;;;5071162;28;20060;-71
2022/10/03 13:20:36;;;;;;;0.93;0.20;;;17.30;78.80;;;;;;5072114;28;20052;-71
2022/10/03 13:23:23;;;;;;;2.88;0.30;;;17.20;84.90;;;;;;5072078;28;20028;-70
2022/10/03 13:26:21;;;;;;;0.55;0.20;;;17.20;85.80;;;;;;5071794;28;20097;-70
2022/10/03 13:28:55;;;;;;;1.67;0.65;;;17.20;85.60;;;;;;5053767;28;20110;-72
2022/10/03 13:31:37;;;;;;;2.20;0.52;;;17.20;89.70;;;;;;5072030;28;20110;-70
2022/10/03 13:34:16;;;;;;;1.02;0.20;;;17.20;82.80;;;;;;5071985;28;20059;-71
2022/10/03 13:36:49;;;;;;;0.85;0.28;;;17.20;90.60;;;;;;5071647;28;20173;-70
2022/10/03 13:39:49;;;;;;;2.58;0.43;;;17.20;90.30;;;;;;5071798;28;20065;-70
2022/10/03 13:42:28;;;;;;;1.77;0.15;;;17.20;84.10;;;;;;5053816;28;20052;-70
2022/10/03 13:44:58;;;;;;;0.63;0.20;;;17.20;81.40;;;;;;5071884;28;20048;-71
2022/10/03 13:47:39;;;;;;;;;;;17.10;80.70;;;;;;5072349;28;20036;-70
2022/10/03 13:50:35;;;;;;;1.45;0.32;;;17.10;83.40;;;;;;5071454;28;19939;-70
2022/10/03 13:53:18;;;;;;;1.50;0.20;;;17.20;85.20;;;;;;5024721;28;20131;-70
2022/10/03 13:55:51;;;;;;;3.42;0.57;;;17.20;86.40;;;;;;5053648;28;20043;-70
2022/10/03 13:58:25;;;;;;;1.20;0.40;;;17.20;88.10;;;;;;5053644;28;20048;-71
2022/10/03 14:01:12;;;;;;;0.63;0.30;;;17.20;88.20;;;;;;5071634;28;20425;-70
2022/10/03 14:03:55;;;;;;;0.68;0.20;;;17.20;85.10;;;;;;5053694;28;20111;-70
2022/10/03 14:06:36;;;;;;;1.40;0.40;;;17.20;85.80;;;;;;5053331;28;20087;-70
2022/10/03 14:09:41;;;;;;;0.73;0.30;;;17.20;85.40;;;;;;5071172;28;20079;-70
2022/10/03 14:12:06;;;;;;;1.45;0.50;;;17.10;82.40;;;;;;5020491;28;20641;-70
2022/10/03 14:14:42;;;;;;;1.85;0.35;;;17.00;81.80;;;;;;5071162;28;20076;-71
2022/10/03 14:17:52;;;;;;;1.42;0.35;;;17.00;84.30;;;;;;5071166;28;20084;-72
2022/10/03 14:20:22;;;;;;;1.80;0.30;;;17.00;87.10;;;;;;4970149;28;20059;-69
2022/10/03 14:22:56;;;;;;;1.17;0.50;;;16.90;87.70;;;;;;4970141;28;20365;-69
2022/10/03 14:25:38;;;;;;;0.70;0.28;;;16.90;89.10;;;;;;5009029;28;20060;-70
2022/10/03 14:28:57;;;;;;;1.90;0.40;;;16.90;90.40;;;;;;5072996;28;20041;-69
2022/10/03 14:31:33;;;;;;;0.65;0.20;;;16.90;89.10;;;;;;4957470;28;20118;-69
2022/10/03 14:34:23;;;;;;;0.82;0.38;;;16.90;91.20;;;;;;5055513;28;20056;-70
2022/10/03 14:36:57;;;;;;;1.98;0.20;;;16.90;91.50;;;;;;5074682;28;20071;-70
2022/10/03 14:39:38;;;;;;;2.20;0.10;;;16.90;91.40;;;;;;5056401;28;20044;-70